createdAt,value
2023-02-11T00:02:23.791Z,96533.75
2023-02-11T00:04:52.929Z,96542.19
2023-02-11T00:07:22.247Z,96531.91
2023-02-11T00:09:51.285Z,96537.75
2023-02-11T00:12:20.203Z,96542.56
2023-02-11T00:14:50.808Z,96540.63
2023-02-11T00:17:19.766Z,96543.22
2023-02-11T00:19:51.292Z,96536.59
2023-02-11T00:22:20.577Z,96538.97
2023-02-11T00:24:49.561Z,96536.28
2023-02-11T00:27:18.722Z,96537.03
2023-02-11T00:29:47.873Z,96530.78
2023-02-11T00:32:18.892Z,96536.31
2023-02-11T00:34:47.995Z,96537.91
2023-02-11T00:37:18.838Z,96532.91
2023-02-11T00:39:47.946Z,96534.97
2023-02-11T00:42:17.381Z,96539.63
2023-02-11T00:44:47.425Z,96527.16
2023-02-11T00:47:20.974Z,96528.66
2023-02-11T00:49:49.907Z,96531.44
2023-02-11T00:52:18.916Z,96519.66
2023-02-11T00:54:47.989Z,96524.03
2023-02-11T00:57:16.998Z,96519.06
2023-02-11T00:59:46.547Z,96524.63
2023-02-11T01:02:16.204Z,96537.56
2023-02-11T01:04:46.742Z,96540.59
2023-02-11T01:07:15.729Z,96539.03
2023-02-11T01:09:44.651Z,96534.47
2023-02-11T01:12:13.715Z,96533.41
2023-02-11T01:14:43.062Z,96535.50
2023-02-11T01:17:12.310Z,96538.31
2023-02-11T01:19:41.462Z,96530.06
2023-02-11T01:22:12.565Z,96525.09
2023-02-11T01:24:41.615Z,96532.31
2023-02-11T01:27:10.517Z,96527.22
2023-02-11T01:29:39.994Z,96525.25
2023-02-11T01:32:09.190Z,96526.28
2023-02-11T01:34:38.199Z,96523.22
2023-02-11T01:37:07.668Z,96511.72
2023-02-11T01:39:38.790Z,96504.88
2023-02-11T01:42:08.088Z,96508.63
2023-02-11T01:44:39.369Z,96512.34
2023-02-11T01:47:08.470Z,96504.63
2023-02-11T01:49:41.158Z,96502.75
2023-02-11T01:52:12.149Z,96507.44
2023-02-11T01:55:02.828Z,96506.28
2023-02-11T01:57:35.267Z,96501.03
2023-02-11T02:00:14.246Z,96505.47
2023-02-11T02:02:51.339Z,96506.09
2023-02-11T02:05:29.973Z,96497.59
2023-02-11T02:08:11.522Z,96500.72
2023-02-11T02:10:44.059Z,96495.13
2023-02-11T02:13:13.704Z,96499.72
2023-02-11T02:15:50.516Z,96506.84
2023-02-11T02:18:36.284Z,96508.78
2023-02-11T02:21:38.719Z,96494.75
2023-02-11T02:24:43.529Z,96507.38
2023-02-11T02:27:43.735Z,96505.00
2023-02-11T02:30:41.460Z,96499.09
2023-02-11T02:33:33.720Z,96501.78
2023-02-11T02:36:10.614Z,96494.84
2023-02-11T02:38:45.570Z,96490.13
2023-02-11T02:41:17.575Z,96498.59
2023-02-11T02:43:50.077Z,96501.19
2023-02-11T02:46:22.712Z,96496.22
2023-02-11T02:48:54.873Z,96497.88
2023-02-11T02:51:49.001Z,96492.91
2023-02-11T02:54:46.620Z,96498.91
2023-02-11T02:57:30.753Z,96496.31
2023-02-11T03:00:13.221Z,96490.75
2023-02-11T03:02:52.598Z,96496.00
2023-02-11T03:05:32.523Z,96491.44
2023-02-11T03:08:08.671Z,96493.31
2023-02-11T03:10:41.966Z,96487.44
2023-02-11T03:13:12.134Z,96496.22
2023-02-11T03:15:45.495Z,96488.34
2023-02-11T03:18:19.070Z,96486.91
2023-02-11T03:20:53.652Z,96480.91
2023-02-11T03:23:28.579Z,96492.06
2023-02-11T03:26:02.358Z,96482.38
2023-02-11T03:28:37.946Z,96481.97
2023-02-11T03:31:14.481Z,96487.94
2023-02-11T03:33:53.908Z,96479.56
2023-02-11T03:36:30.099Z,96493.81
2023-02-11T03:39:01.777Z,96490.53
2023-02-11T03:41:33.239Z,96485.03
2023-02-11T03:44:04.046Z,96489.81
2023-02-11T03:46:36.995Z,96484.75
2023-02-11T03:49:11.139Z,96488.06
2023-02-11T03:51:42.538Z,96487.22
2023-02-11T03:54:16.702Z,96489.19
2023-02-11T03:56:51.118Z,96491.56
2023-02-11T03:59:20.234Z,96480.41
2023-02-11T04:01:49.616Z,96476.25
2023-02-11T04:04:18.960Z,96487.13
2023-02-11T04:06:49.988Z,96481.22
2023-02-11T04:09:19.060Z,96483.72
2023-02-11T04:11:48.551Z,96478.94
2023-02-11T04:14:17.597Z,96474.50
2023-02-11T04:16:46.956Z,96477.00
2023-02-11T04:19:15.843Z,96475.53
2023-02-11T04:21:44.726Z,96483.81
2023-02-11T04:24:15.206Z,96481.00
2023-02-11T04:26:44.236Z,96493.31
2023-02-11T04:29:13.720Z,96490.13
2023-02-11T04:31:42.860Z,96487.94
2023-02-11T04:34:12.521Z,96483.00
2023-02-11T04:36:42.536Z,96479.44
2023-02-11T04:39:11.911Z,96480.81
2023-02-11T04:41:42.362Z,96481.72
2023-02-11T04:44:12.886Z,96483.00
2023-02-11T04:46:43.649Z,96483.50
2023-02-11T04:49:15.496Z,96486.91
2023-02-11T04:51:49.202Z,96482.91
2023-02-11T04:54:19.154Z,96472.03
2023-02-11T04:56:49.916Z,96482.78
2023-02-11T04:59:19.129Z,96482.97
2023-02-11T05:01:48.081Z,96477.09
2023-02-11T05:04:19.146Z,96475.34
2023-02-11T05:06:49.805Z,96469.34
2023-02-11T05:09:19.351Z,96464.28
2023-02-11T05:11:49.927Z,96462.03
2023-02-11T05:14:18.975Z,96464.06
2023-02-11T05:16:47.995Z,96459.81
2023-02-11T05:19:17.104Z,96457.53
2023-02-11T05:22:01.310Z,96462.94
2023-02-11T05:24:31.917Z,96456.59
2023-02-11T05:27:03.237Z,96461.06
2023-02-11T05:29:32.813Z,96464.84
2023-02-11T05:32:01.841Z,96461.25
2023-02-11T05:34:30.955Z,96462.28
2023-02-11T05:36:59.932Z,96456.81
2023-02-11T05:39:29.934Z,96466.69
2023-02-11T05:41:58.988Z,96466.81
2023-02-11T05:44:29.548Z,96468.66
2023-02-11T05:46:58.506Z,96463.50
2023-02-11T05:49:27.619Z,96465.34
2023-02-11T05:51:56.630Z,96461.19
2023-02-11T05:54:25.710Z,96456.56
2023-02-11T05:56:54.650Z,96457.50
2023-02-11T05:59:23.702Z,96461.03
2023-02-11T06:01:54.143Z,96480.44
2023-02-11T06:04:23.356Z,96476.31
2023-02-11T06:06:52.316Z,96476.44
2023-02-11T06:09:21.993Z,96473.47
2023-02-11T06:11:51.595Z,96473.47
2023-02-11T06:14:21.380Z,96476.91
2023-02-11T06:16:50.522Z,96476.47
2023-02-11T06:19:22.083Z,96481.44
2023-02-11T06:21:51.241Z,96482.75
2023-02-11T06:24:33.109Z,96484.41
2023-02-11T06:27:10.731Z,96491.72
2023-02-11T06:29:39.749Z,96479.09
2023-02-11T06:32:16.641Z,96491.03
2023-02-11T06:34:58.837Z,96492.59
2023-02-11T06:37:27.856Z,96491.53
2023-02-11T06:39:56.914Z,96492.00
2023-02-11T06:42:26.007Z,96490.31
2023-02-11T06:44:54.888Z,96495.22
2023-02-11T06:47:25.147Z,96483.88
2023-02-11T06:49:54.821Z,96490.19
2023-02-11T06:52:28.371Z,96482.00
2023-02-11T06:54:58.024Z,96486.41
2023-02-11T06:57:27.183Z,96482.09
2023-02-11T06:59:56.176Z,96477.75
2023-02-11T07:02:25.898Z,96488.03
2023-02-11T07:04:55.009Z,96488.00
2023-02-11T07:07:24.786Z,96489.75
2023-02-11T07:09:55.298Z,96490.53
2023-02-11T07:12:24.598Z,96482.94
2023-02-11T07:14:53.690Z,96473.78
2023-02-11T07:17:22.702Z,96471.06
2023-02-11T07:19:51.680Z,96473.28
2023-02-11T07:22:21.349Z,96467.66
2023-02-11T07:24:50.242Z,96462.44
2023-02-11T07:27:20.842Z,96462.69
2023-02-11T07:29:49.849Z,96462.41
2023-02-11T07:32:18.954Z,96457.44
2023-02-11T07:34:48.612Z,96452.47
2023-02-11T07:37:18.308Z,96456.16
2023-02-11T07:39:47.860Z,96458.78
2023-02-11T07:42:16.986Z,96454.63
2023-02-11T07:44:50.569Z,96457.59
2023-02-11T07:47:19.824Z,96458.25
2023-02-11T07:49:49.138Z,96456.03
2023-02-11T07:52:19.354Z,96461.09
2023-02-11T07:54:50.240Z,96459.63
2023-02-11T07:57:19.370Z,96454.78
2023-02-11T07:59:49.784Z,96462.97
2023-02-11T08:02:19.479Z,96462.13
2023-02-11T08:04:48.607Z,96462.47
2023-02-11T08:07:18.708Z,96457.59
2023-02-11T08:09:49.153Z,96460.97
2023-02-11T08:12:18.181Z,96465.72
2023-02-11T08:14:47.274Z,96455.72
2023-02-11T08:17:18.350Z,96462.28
2023-02-11T08:19:47.450Z,96454.56
2023-02-11T08:22:16.488Z,96455.06
2023-02-11T08:24:45.876Z,96447.81
2023-02-11T08:27:14.855Z,96455.44
2023-02-11T08:29:43.882Z,96450.19
2023-02-11T08:32:13.019Z,96446.09
2023-02-11T08:34:43.631Z,96451.75
2023-02-11T08:37:12.906Z,96449.47
2023-02-11T08:39:42.011Z,96450.22
2023-02-11T08:42:11.669Z,96450.97
2023-02-11T08:44:41.122Z,96449.38
2023-02-11T08:47:10.863Z,96449.41
2023-02-11T08:49:42.089Z,96454.34
2023-02-11T08:52:12.624Z,96457.88
2023-02-11T08:54:41.668Z,96453.38
2023-02-11T08:57:10.809Z,96461.50
2023-02-11T08:59:40.469Z,96449.34
2023-02-11T09:02:13.414Z,96451.19
2023-02-11T09:04:42.709Z,96451.56
2023-02-11T09:07:14.067Z,96444.59
2023-02-11T09:09:43.944Z,96449.94
2023-02-11T09:12:13.590Z,96444.66
2023-02-11T09:14:43.290Z,96446.09
2023-02-11T09:17:12.470Z,96444.34
2023-02-11T09:19:41.445Z,96445.53
2023-02-11T09:22:10.509Z,96444.34
2023-02-11T09:24:43.130Z,96446.97
2023-02-11T09:27:12.154Z,96444.84
2023-02-11T09:29:41.185Z,96433.09
2023-02-11T09:32:11.424Z,96440.50
2023-02-11T09:34:41.153Z,96429.41
2023-02-11T09:37:10.985Z,96433.56
2023-02-11T09:39:41.544Z,96425.38
2023-02-11T09:42:44.409Z,96431.97
2023-02-11T09:45:19.837Z,96414.38
2023-02-11T09:47:54.069Z,96425.41
2023-02-11T09:50:32.278Z,96410.56
2023-02-11T09:53:05.165Z,96415.44
2023-02-11T09:55:39.734Z,96403.19
2023-02-11T09:58:15.552Z,96395.81
2023-02-11T10:00:50.641Z,96396.63
2023-02-11T10:03:54.895Z,96391.19
2023-02-11T10:06:43.042Z,96380.63
2023-02-11T10:09:22.521Z,96377.81
2023-02-11T10:12:04.975Z,96370.91
2023-02-11T10:15:02.746Z,96367.25
2023-02-11T10:17:40.264Z,96348.28
2023-02-11T10:20:23.279Z,96356.38
2023-02-11T10:22:56.273Z,96352.75
2023-02-11T10:25:27.304Z,96339.25
2023-02-11T10:28:01.486Z,96326.38
2023-02-11T10:30:35.132Z,96325.16
2023-02-11T10:33:13.785Z,96324.97
2023-02-11T10:35:44.132Z,96309.44
2023-02-11T10:38:13.765Z,96306.03
2023-02-11T10:40:42.997Z,96307.00
2023-02-11T10:43:17.162Z,96311.34
2023-02-11T10:45:51.770Z,96303.28
2023-02-11T10:48:42.247Z,96299.00
2023-02-11T10:51:20.274Z,96290.06
2023-02-11T10:53:50.931Z,96294.78
2023-02-11T10:56:29.095Z,96288.69
2023-02-11T10:59:03.223Z,96282.81
2023-02-11T11:01:45.364Z,96287.69
2023-02-11T11:04:44.278Z,96284.75
2023-02-11T11:07:20.975Z,96269.44
2023-02-11T11:09:53.501Z,96264.78
2023-02-11T11:12:32.815Z,96274.47
2023-02-11T11:15:16.663Z,96263.50
2023-02-11T11:17:47.016Z,96266.00
2023-02-11T11:20:20.549Z,96254.03
2023-02-11T11:22:51.591Z,96255.75
2023-02-11T11:25:29.637Z,96256.19
2023-02-11T11:28:01.980Z,96250.50
2023-02-11T11:30:41.243Z,96253.78
2023-02-11T11:33:21.382Z,96251.22
2023-02-11T11:36:04.245Z,96248.41
2023-02-11T11:38:36.341Z,96243.91
2023-02-11T11:41:21.652Z,96246.31
2023-02-11T11:44:02.537Z,96243.59
2023-02-11T11:46:36.668Z,96235.75
2023-02-11T11:49:25.254Z,96223.41
2023-02-11T11:52:04.533Z,96219.53
2023-02-11T11:54:35.994Z,96218.66
2023-02-11T11:57:13.133Z,96215.78
2023-02-11T11:59:42.370Z,96216.72
2023-02-11T12:02:46.779Z,96211.44
2023-02-11T12:05:25.387Z,96213.81
2023-02-11T12:08:05.467Z,96206.31
2023-02-11T12:10:56.496Z,96206.59
2023-02-11T12:13:42.373Z,96194.41
2023-02-11T12:16:26.114Z,96180.81
2023-02-11T12:19:21.146Z,96175.31
2023-02-11T12:22:03.395Z,96168.19
2023-02-11T12:24:53.462Z,96172.09
2023-02-11T12:27:38.450Z,96161.19
2023-02-11T12:30:18.536Z,96160.81
2023-02-11T12:32:55.288Z,96152.72
2023-02-11T12:35:39.483Z,96147.00
2023-02-11T12:38:25.845Z,96147.06
2023-02-11T12:41:04.685Z,96145.91
2023-02-11T12:43:37.319Z,96151.22
2023-02-11T12:46:24.554Z,96154.28
2023-02-11T12:49:11.397Z,96144.09
2023-02-11T12:51:56.735Z,96145.25
2023-02-11T12:54:32.531Z,96148.41
2023-02-11T12:57:05.024Z,96133.69
2023-02-11T12:59:42.079Z,96139.09
2023-02-11T13:02:26.532Z,96129.41
2023-02-11T13:04:59.264Z,96125.03
2023-02-11T13:07:35.049Z,96130.16
2023-02-11T13:10:17.483Z,96124.47
2023-02-11T13:13:07.229Z,96120.03
2023-02-11T13:15:38.639Z,96114.84
2023-02-11T13:18:25.570Z,96127.50
2023-02-11T13:21:03.266Z,96122.03
2023-02-11T13:23:42.396Z,96120.91
2023-02-11T13:26:21.164Z,96110.13
2023-02-11T13:28:56.479Z,96103.69
2023-02-11T13:31:27.841Z,96106.03
2023-02-11T13:33:57.458Z,96105.59
2023-02-11T13:36:28.289Z,96091.44
2023-02-11T13:39:08.220Z,96104.19
2023-02-11T13:41:42.136Z,96092.94
2023-02-11T13:44:26.849Z,96094.41
2023-02-11T13:47:00.385Z,96096.84
2023-02-11T13:49:35.527Z,96092.75
2023-02-11T13:52:07.656Z,96097.44
2023-02-11T13:54:41.181Z,96091.59
2023-02-11T13:57:38.106Z,96095.16
2023-02-11T14:00:49.856Z,96086.78
2023-02-11T14:03:54.375Z,96082.16
2023-02-11T14:06:44.943Z,96084.25
2023-02-11T14:09:41.545Z,96083.09
2023-02-11T14:12:34.168Z,96089.28
2023-02-11T14:15:20.677Z,96087.88
2023-02-11T14:17:50.460Z,96083.66
2023-02-11T14:20:48.070Z,96083.28
2023-02-11T14:23:27.456Z,96074.22
2023-02-11T14:26:14.934Z,96074.03
2023-02-11T14:28:47.063Z,96080.56
2023-02-11T14:31:23.653Z,96073.28
2023-02-11T14:34:14.638Z,96071.84
2023-02-11T14:37:02.895Z,96067.03
2023-02-11T14:39:48.070Z,96067.16
2023-02-11T14:42:22.764Z,96059.47
2023-02-11T14:44:54.938Z,96064.56
2023-02-11T14:47:31.010Z,96057.75
2023-02-11T14:50:01.402Z,96057.66
2023-02-11T14:52:35.786Z,96050.94
2023-02-11T14:55:19.092Z,96052.84
2023-02-11T14:57:52.208Z,96045.53
2023-02-11T15:00:24.803Z,96046.56
2023-02-11T15:02:54.072Z,96048.59
2023-02-11T15:05:26.339Z,96044.13
2023-02-11T15:07:58.492Z,96042.38
2023-02-11T15:10:33.453Z,96041.91
2023-02-11T15:13:06.111Z,96033.06
2023-02-11T15:15:38.070Z,96035.41
2023-02-11T15:18:09.850Z,96024.75
2023-02-11T15:20:39.036Z,96027.88
2023-02-11T15:23:15.172Z,96029.34
2023-02-11T15:25:45.975Z,96026.59
2023-02-11T15:28:24.251Z,96028.53
2023-02-11T15:31:01.780Z,96031.97
2023-02-11T15:33:32.500Z,96026.56
2023-02-11T15:36:04.138Z,96033.75
2023-02-11T15:38:34.031Z,96035.25
2023-02-11T15:41:07.707Z,96035.88
2023-02-11T15:43:46.613Z,96036.06
2023-02-11T15:46:18.304Z,96033.25
2023-02-11T15:48:49.671Z,96036.22
2023-02-11T15:51:23.355Z,96035.06
2023-02-11T15:53:57.028Z,96034.75
2023-02-11T15:56:31.267Z,96035.69
2023-02-11T15:59:17.557Z,96031.91
2023-02-11T16:01:48.893Z,96038.59
2023-02-11T16:04:20.748Z,96032.91
2023-02-11T16:06:52.361Z,96036.13
2023-02-11T16:09:32.031Z,96033.22
2023-02-11T16:12:03.754Z,96030.44
2023-02-11T16:14:39.534Z,96040.03
2023-02-11T16:17:12.567Z,96039.25
2023-02-11T16:19:46.868Z,96048.53
2023-02-11T16:22:19.970Z,96045.91
2023-02-11T16:24:51.276Z,96045.09
2023-02-11T16:27:24.543Z,96045.59
2023-02-11T16:29:56.766Z,96049.31
2023-02-11T16:32:28.124Z,96051.59
2023-02-11T16:34:59.341Z,96046.03
2023-02-11T16:37:29.343Z,96051.72
2023-02-11T16:39:59.020Z,96044.00
2023-02-11T16:42:28.219Z,96051.03
2023-02-11T16:45:00.012Z,96045.97
2023-02-11T16:47:31.372Z,96044.66
2023-02-11T16:50:00.943Z,96047.63
2023-02-11T16:52:31.869Z,96047.94
2023-02-11T16:55:01.474Z,96044.50
2023-02-11T16:57:32.569Z,96041.38
2023-02-11T17:00:03.692Z,96034.66
2023-02-11T17:02:36.740Z,96032.72
2023-02-11T17:05:08.306Z,96033.38
2023-02-11T17:07:38.111Z,96037.56
2023-02-11T17:10:15.818Z,96026.94
2023-02-11T17:12:45.472Z,96026.88
2023-02-11T17:15:16.275Z,96037.28
2023-02-11T17:17:46.078Z,96037.44
2023-02-11T17:20:17.069Z,96032.22
2023-02-11T17:22:46.785Z,96029.56
2023-02-11T17:25:15.785Z,96036.56
2023-02-11T17:27:45.733Z,96045.34
2023-02-11T17:30:17.054Z,96036.97
2023-02-11T17:32:47.460Z,96044.13
2023-02-11T17:35:17.791Z,96042.09
2023-02-11T17:37:46.996Z,96045.44
2023-02-11T17:40:16.716Z,96050.03
2023-02-11T17:42:46.382Z,96042.78
2023-02-11T17:45:16.868Z,96044.75
2023-02-11T17:47:50.580Z,96053.75
2023-02-11T17:50:20.171Z,96045.44
2023-02-11T17:52:49.185Z,96045.25
2023-02-11T17:55:18.961Z,96042.81
2023-02-11T18:00:44.971Z,96051.38
2023-02-11T18:03:14.845Z,96039.81
2023-02-11T18:05:43.818Z,96030.81
2023-02-11T18:08:12.890Z,96035.72
2023-02-11T18:10:43.487Z,96029.63
2023-02-11T18:13:13.329Z,96040.78
2023-02-11T18:15:44.522Z,96043.25
2023-02-11T18:18:13.700Z,96047.34
2023-02-11T18:20:43.483Z,96049.34
2023-02-11T18:23:13.290Z,96045.56
2023-02-11T18:25:43.279Z,96033.00
2023-02-11T18:28:12.307Z,96035.28
2023-02-11T18:30:41.515Z,96044.38
2023-02-11T18:33:14.457Z,96034.84
2023-02-11T18:35:46.282Z,96023.38
2023-02-11T18:38:15.330Z,96028.13
2023-02-11T18:40:46.801Z,96033.50
2023-02-11T18:43:16.016Z,96030.31
2023-02-11T18:45:45.150Z,96032.25
2023-02-11T18:48:16.197Z,96024.28
2023-02-11T18:50:46.444Z,96030.16
2023-02-11T18:53:16.568Z,96020.84
2023-02-11T18:55:47.642Z,96026.50
2023-02-11T18:58:16.985Z,96035.00
2023-02-11T19:00:48.547Z,96040.06
2023-02-11T19:03:19.244Z,96030.16
2023-02-11T19:05:50.679Z,96040.13
2023-02-11T19:08:20.886Z,96031.19
2023-02-11T19:10:50.234Z,96029.19
2023-02-11T19:13:19.462Z,96028.06
2023-02-11T19:15:49.132Z,96029.69
2023-02-11T19:18:19.685Z,96017.75
2023-02-11T19:20:48.999Z,96022.66
2023-02-11T19:23:18.048Z,96011.78
2023-02-11T19:25:48.256Z,96018.28
2023-02-11T19:28:17.437Z,96001.81
2023-02-11T19:30:46.585Z,96003.63
2023-02-11T19:33:15.906Z,96003.88
2023-02-11T19:35:46.304Z,96008.44
2023-02-11T19:38:17.773Z,96009.41
2023-02-11T19:40:48.548Z,96007.19
2023-02-11T19:43:17.809Z,96010.75
2023-02-11T19:45:46.874Z,96007.84
2023-02-11T19:48:15.957Z,96010.19
2023-02-11T19:50:46.594Z,95997.31
2023-02-11T19:53:15.752Z,95993.06
2023-02-11T19:55:44.680Z,95991.13
2023-02-11T19:58:14.470Z,95999.91
2023-02-11T20:00:44.291Z,96001.69
2023-02-11T20:03:13.308Z,96004.00
2023-02-11T20:05:47.861Z,95992.63
2023-02-11T20:08:18.768Z,95984.41
2023-02-11T20:10:48.295Z,95984.81
2023-02-11T20:13:17.333Z,95980.56
2023-02-11T20:15:47.827Z,95982.88
2023-02-11T20:18:18.156Z,95990.53
2023-02-11T20:20:50.377Z,95984.50
2023-02-11T20:23:21.020Z,95973.31
2023-02-11T20:25:50.529Z,95968.66
2023-02-11T20:28:19.880Z,95973.47
2023-02-11T20:30:58.474Z,95974.63
2023-02-11T20:33:28.757Z,95975.50
2023-02-11T20:35:59.221Z,95968.13
2023-02-11T20:38:30.004Z,95964.16
2023-02-11T20:41:04.869Z,95957.09
2023-02-11T20:43:37.861Z,95957.50
2023-02-11T20:46:08.655Z,95956.28
2023-02-11T20:48:37.694Z,95949.59
2023-02-11T20:51:09.211Z,95939.63
2023-02-11T20:53:42.584Z,95939.75
2023-02-11T20:56:14.784Z,95939.34
2023-02-11T20:58:45.242Z,95937.56
2023-02-11T21:01:18.708Z,95919.34
2023-02-11T21:03:51.924Z,95922.47
2023-02-11T21:06:21.972Z,95917.25
2023-02-11T21:08:52.663Z,95917.44
2023-02-11T21:11:22.243Z,95917.44
2023-02-11T21:13:53.038Z,95927.09
2023-02-11T21:16:22.858Z,95904.78
2023-02-11T21:18:52.778Z,95902.88
2023-02-11T21:21:21.977Z,95911.34
2023-02-11T21:23:53.943Z,95901.75
2023-02-11T21:26:23.223Z,95911.88
2023-02-11T21:28:52.564Z,95912.41
2023-02-11T21:31:24.146Z,95906.16
2023-02-11T21:33:55.246Z,95907.38
2023-02-11T21:36:25.349Z,95910.44
2023-02-11T21:38:56.126Z,95908.66
2023-02-11T21:41:25.482Z,95912.22
2023-02-11T21:43:54.832Z,95905.66
2023-02-11T21:46:24.623Z,95919.22
2023-02-11T21:48:53.994Z,95904.84
2023-02-11T21:51:26.486Z,95901.28
2023-02-11T21:53:58.721Z,95913.47
2023-02-11T21:56:29.749Z,95909.50
2023-02-11T21:59:00.442Z,95911.88
2023-02-11T22:01:32.121Z,95912.69
2023-02-11T22:04:01.806Z,95909.53
2023-02-11T22:06:32.438Z,95907.47
2023-02-11T22:09:06.187Z,95911.47
2023-02-11T22:11:38.699Z,95894.06
2023-02-11T22:14:07.786Z,95899.97
2023-02-11T22:16:37.873Z,95914.06
2023-02-11T22:19:07.715Z,95905.03
2023-02-11T22:21:36.877Z,95907.63
2023-02-11T22:24:08.735Z,95911.31
2023-02-11T22:26:37.778Z,95896.94
2023-02-11T22:29:06.796Z,95903.34
2023-02-11T22:31:36.505Z,95902.84
2023-02-11T22:34:06.644Z,95895.94
2023-02-11T22:36:38.443Z,95889.19
2023-02-11T22:39:11.282Z,95882.06
2023-02-11T22:41:42.223Z,95875.75
2023-02-11T22:44:11.919Z,95866.97
2023-02-11T22:46:41.908Z,95868.97
2023-02-11T22:49:14.495Z,95872.78
2023-02-11T22:51:44.858Z,95873.31
2023-02-11T22:54:17.315Z,95883.56
2023-02-11T22:56:46.972Z,95882.19
2023-02-11T22:59:17.163Z,95886.78
2023-02-11T23:01:47.256Z,95880.19
2023-02-11T23:04:19.432Z,95867.59
2023-02-11T23:06:49.589Z,95867.59
2023-02-11T23:09:20.006Z,95862.69
2023-02-11T23:11:50.127Z,95873.47
2023-02-11T23:14:19.251Z,95869.09
2023-02-11T23:16:51.668Z,95869.38
2023-02-11T23:19:20.971Z,95881.38
2023-02-11T23:21:52.698Z,95869.91
2023-02-11T23:24:23.472Z,95879.28
2023-02-11T23:26:52.793Z,95878.41
2023-02-11T23:29:21.964Z,95876.09
2023-02-11T23:31:51.159Z,95878.03
2023-02-11T23:34:25.413Z,95874.00
2023-02-11T23:36:54.529Z,95874.09
2023-02-11T23:39:25.924Z,95866.84
2023-02-11T23:41:59.139Z,95865.81
2023-02-11T23:44:28.526Z,95873.06
2023-02-11T23:46:57.632Z,95867.53
2023-02-11T23:49:26.972Z,95865.59
2023-02-11T23:51:56.808Z,95862.81
2023-02-11T23:54:27.845Z,95853.84
2023-02-11T23:56:56.944Z,95856.44
2023-02-11T23:59:26.060Z,95861.44
